Time;durP1;ratioP1;P1;durP2;ratioP2;P2;SDS_P1;SDS_P2;PMS_P1;PMS_P2;Temp;Humidity;BMP_temperature;BMP_pressure;BME280_temperature;BME280_humidity;BME280_pressure;Samples;Min_cycle;Max_cycle;Signal;HPM_P1;HPM_P2
2022/12/30 00:01:37;;;;;;;;;;;;;;;;;;5026765;28;3387;-58
2022/12/30 00:04:02;;;;;;;;;;;;;;;;;;5023344;28;4603;-59
2022/12/30 00:06:27;;;;;;;;;;;;;;;;;;5033030;28;5254;-59
2022/12/30 00:08:54;;;;;;;;;;;;;;;;;;5028261;28;4654;-59
2022/12/30 00:11:29;;;;;;;;;;;;;;;;;;5023833;28;5239;-58
2022/12/30 00:33:27;;;;;;;;;;;;;;;;;;5028760;28;5051;-59
2022/12/30 00:35:53;;;;;;;;;;;;;;;;;;5025150;28;5168;-59
2022/12/30 00:38:18;;;;;;;;;;;;;;;;;;5027025;28;4610;-58
2022/12/30 00:43:07;;;;;;;;;;;;;;;;;;5027534;28;3575;-58
2022/12/30 00:43:28;;;;;;;;;;;;;;;;;;5023947;28;4740;-58
2022/12/30 00:45:54;;;;;;;;;;;;;;;;;;5024581;28;5056;-59
2022/12/30 00:56:31;;;;;;;;;;;;;;;;;;5021692;28;5115;-59
2022/12/30 00:58:56;;;;;;;;;;;;;;;;;;5024782;28;4995;-59
2022/12/30 01:01:21;;;;;;;;;;;;;;;;;;5022404;28;3626;-59
2022/12/30 01:03:47;;;;;;;;;;;;;;;;;;5019180;28;4969;-58
2022/12/30 01:06:12;;;;;;;;;;;;;;;;;;5020861;28;5211;-58
2022/12/30 01:08:37;;;;;;;;;;;;;;;;;;5019816;28;5092;-60
2022/12/30 01:11:09;;;;;;;;;;;;;;;;;;5023154;28;5380;-59
2022/12/30 01:13:34;;;;;;;;;;;;;;;;;;5018934;28;3411;-59
2022/12/30 01:16:09;;;;;;;;;;;;;;;;;;5022920;28;5065;-59
2022/12/30 01:18:35;;;;;;;;;;;;;;;;;;5033189;28;4906;-58
2022/12/30 01:21:00;;;;;;;;;;;;;;;;;;5024380;28;4740;-59
2022/12/30 01:23:26;;;;;;;;;;;;;;;;;;5026605;28;4652;-58
2022/12/30 01:25:51;;;;;;;;;;;;;;;;;;5027041;28;3323;-59
2022/12/30 01:28:16;;;;;;;;;;;;;;;;;;5023931;28;4405;-58
2022/12/30 01:30:41;;;;;;;;;;;;;;;;;;5021576;28;5053;-59
2022/12/30 01:33:07;;;;;;;;;;;;;;;;;;5056028;28;4657;-59
2022/12/30 01:35:32;;;;;;;;;;;;;;;;;;5025417;28;4828;-59
2022/12/30 01:37:57;;;;;;;;;;;;;;;;;;5025338;28;5154;-59
2022/12/30 01:40:22;;;;;;;;;;;;;;;;;;5023876;28;3395;-59
2022/12/30 01:42:48;;;;;;;;;;;;;;;;;;5027557;28;5185;-59
2022/12/30 01:45:13;;;;;;;;;;;;;;;;;;5027388;28;5112;-59
2022/12/30 01:47:44;;;;;;;;;;;;;;;;;;5032432;28;4497;-58
2022/12/30 01:50:09;;;;;;;;;;;;;;;;;;5027421;28;4662;-58
2022/12/30 01:52:35;;;;;;;;;;;;;;;;;;5029050;28;1209;-59
2022/12/30 01:55:01;;;;;;;;;;;;;;;;;;5040351;28;5125;-59
2022/12/30 01:57:27;;;;;;;;;;;;;;;;;;5022158;28;5211;-59
2022/12/30 01:59:52;;;;;;;;;;;;;;;;;;5055398;28;4853;-59
2022/12/30 02:02:17;;;;;;;;;;;;;;;;;;5025675;28;4453;-58
2022/12/30 02:04:42;;;;;;;;;;;;;;;;;;5027570;28;1264;-59
2022/12/30 02:07:11;;;;;;;;;;;;;;;;;;5024307;28;5264;-59
2022/12/30 02:09:36;;;;;;;;;;;;;;;;;;5025084;28;4902;-59
2022/12/30 02:12:01;;;;;;;;;;;;;;;;;;5023474;28;5133;-59
2022/12/30 02:14:27;;;;;;;;;;;;;;;;;;5025659;28;5169;-59
2022/12/30 02:16:55;;;;;;;;;;;;;;;;;;5056574;28;4534;-58
2022/12/30 02:19:29;;;;;;;;;;;;;;;;;;5019665;28;4595;-59
2022/12/30 02:21:59;;;;;;;;;;;;;;;;;;5020791;28;5240;-59
2022/12/30 02:24:31;;;;;;;;;;;;;;;;;;5058054;28;5218;-59
2022/12/30 02:27:15;;;;;;;;;;;;;;;;;;5052732;28;5175;-59
2022/12/30 02:29:43;;;;;;;;;;;;;;;;;;5018266;28;5042;-59
2022/12/30 02:32:17;;;;;;;;;;;;;;;;;;5022383;28;5060;-59
2022/12/30 02:35:03;;;;;;;;;;;;;;;;;;5024373;28;3527;-59
2022/12/30 02:37:28;;;;;;;;;;;;;;;;;;5008702;28;5551;-59
2022/12/30 02:40:02;;;;;;;;;;;;;;;;;;5023720;28;5031;-60
2022/12/30 02:45:19;;;;;;;;;;;;;;;;;;5019038;28;5160;-60
2022/12/30 02:47:44;;;;;;;;;;;;;;;;;;5018803;28;4996;-60
2022/12/30 02:53:01;;;;;;;;;;;;;;;;;;5018421;28;5072;-59
2022/12/30 02:55:26;;;;;;;;;;;;;;;;;;5022720;28;3430;-59
2022/12/30 02:57:52;;;;;;;;;;;;;;;;;;5022973;28;5022;-59
2022/12/30 03:05:54;;;;;;;;;;;;;;;;;;5021624;28;5131;-59
2022/12/30 03:08:32;;;;;;;;;;;;;;;;;;5023597;28;4471;-58
2022/12/30 03:11:15;;;;;;;;;;;;;;;;;;5033711;28;5275;-59
2022/12/30 03:13:46;;;;;;;;;;;;;;;;;;5019152;28;3539;-59
2022/12/30 03:16:34;;;;;;;;;;;;;;;;;;5018016;28;4582;-59
2022/12/30 03:19:04;;;;;;;;;;;;;;;;;;5020214;28;4673;-59
2022/12/30 03:21:30;;;;;;;;;;;;;;;;;;5026927;28;5296;-59
2022/12/30 03:29:25;;;;;;;;;;;;;;;;;;5052207;28;4671;-59
2022/12/30 03:31:50;;;;;;;;;;;;;;;;;;5028996;28;3460;-59
2022/12/30 03:34:16;;;;;;;;;;;;;;;;;;5062004;28;4611;-59
2022/12/30 03:36:42;;;;;;;;;;;;;;;;;;5028805;28;4854;-59
2022/12/30 03:39:17;;;;;;;;;;;;;;;;;;5046200;28;5023;-59
2022/12/30 03:41:43;;;;;;;;;;;;;;;;;;5028709;28;4669;-59
2022/12/30 03:44:09;;;;;;;;;;;;;;;;;;5026299;28;4525;-59
2022/12/30 03:46:34;;;;;;;;;;;;;;;;;;5028875;28;2307;-59
2022/12/30 03:48:59;;;;;;;;;;;;;;;;;;5029822;28;5084;-59
2022/12/30 03:51:24;;;;;;;;;;;;;;;;;;5037000;28;5187;-58
2022/12/30 03:53:50;;;;;;;;;;;;;;;;;;5031522;28;5492;-59
2022/12/30 03:56:15;;;;;;;;;;;;;;;;;;5026458;28;5134;-59
2022/12/30 03:58:40;;;;;;;;;;;;;;;;;;5031635;28;1300;-60
2022/12/30 04:01:05;;;;;;;;;;;;;;;;;;5026033;28;4443;-59
2022/12/30 04:03:31;;;;;;;;;;;;;;;;;;5025868;28;4955;-59
2022/12/30 04:05:56;;;;;;;;;;;;;;;;;;5033641;28;4704;-59
2022/12/30 04:08:22;;;;;;;;;;;;;;;;;;5033639;28;5287;-59
2022/12/30 04:10:47;;;;;;;;;;;;;;;;;;5033622;28;3321;-58
2022/12/30 04:13:12;;;;;;;;;;;;;;;;;;5027602;28;5090;-58
2022/12/30 04:15:38;;;;;;;;;;;;;;;;;;5027594;28;5125;-58
2022/12/30 04:18:03;;;;;;;;;;;;;;;;;;5029123;28;5067;-58
2022/12/30 04:20:28;;;;;;;;;;;;;;;;;;5025738;28;4580;-58
2022/12/30 04:22:57;;;;;;;;;;;;;;;;;;5030765;28;4479;-59
2022/12/30 04:25:23;;;;;;;;;;;;;;;;;;5029958;28;3446;-58
2022/12/30 04:27:48;;;;;;;;;;;;;;;;;;5028808;28;4989;-59
2022/12/30 04:30:13;;;;;;;;;;;;;;;;;;5025739;28;4984;-58
2022/12/30 04:32:38;;;;;;;;;;;;;;;;;;5029676;28;5049;-57
2022/12/30 04:35:04;;;;;;;;;;;;;;;;;;5042710;28;5067;-59
2022/12/30 04:37:29;;;;;;;;;;;;;;;;;;5030872;28;1909;-58
2022/12/30 04:39:54;;;;;;;;;;;;;;;;;;5025634;28;4881;-59
2022/12/30 04:42:20;;;;;;;;;;;;;;;;;;5028890;28;4496;-59
2022/12/30 04:44:45;;;;;;;;;;;;;;;;;;5029035;28;5058;-58
2022/12/30 04:47:10;;;;;;;;;;;;;;;;;;5027858;28;5115;-59
2022/12/30 04:49:35;;;;;;;;;;;;;;;;;;5026935;28;3508;-59
2022/12/30 04:52:00;;;;;;;;;;;;;;;;;;5021416;28;4897;-59
2022/12/30 04:54:26;;;;;;;;;;;;;;;;;;5024494;28;5131;-59
2022/12/30 04:56:51;;;;;;;;;;;;;;;;;;5024849;28;5155;-59
2022/12/30 04:59:16;;;;;;;;;;;;;;;;;;5025497;28;5083;-59
2022/12/30 05:01:42;;;;;;;;;;;;;;;;;;5024925;28;3399;-59
2022/12/30 05:04:07;;;;;;;;;;;;;;;;;;5022735;28;5023;-59
2022/12/30 05:06:32;;;;;;;;;;;;;;;;;;5025542;28;4698;-59
2022/12/30 05:08:57;;;;;;;;;;;;;;;;;;5023625;28;5117;-59
2022/12/30 05:11:23;;;;;;;;;;;;;;;;;;5026773;28;5097;-59
2022/12/30 05:13:48;;;;;;;;;;;;;;;;;;5027409;28;1094;-58
2022/12/30 05:16:13;;;;;;;;;;;;;;;;;;5029393;28;4788;-59
2022/12/30 05:18:39;;;;;;;;;;;;;;;;;;5024226;28;5020;-59
2022/12/30 05:21:04;;;;;;;;;;;;;;;;;;5050296;28;5771;-59
2022/12/30 05:26:14;;;;;;;;;;;;;;;;;;5022793;28;5188;-59
2022/12/30 05:28:39;;;;;;;;;;;;;;;;;;5057086;28;3576;-59
2022/12/30 05:31:04;;;;;;;;;;;;;;;;;;5029570;28;4892;-58
2022/12/30 05:33:30;;;;;;;;;;;;;;;;;;5022944;28;5091;-59
2022/12/30 05:35:55;;;;;;;;;;;;;;;;;;5024811;28;5139;-59
2022/12/30 05:38:20;;;;;;;;;;;;;;;;;;5024470;28;4960;-58
2022/12/30 05:40:45;;;;;;;;;;;;;;;;;;5025922;28;3499;-57
2022/12/30 05:43:10;;;;;;;;;;;;;;;;;;5025308;28;5080;-59
2022/12/30 05:45:36;;;;;;;;;;;;;;;;;;5030790;28;5175;-59
2022/12/30 05:48:01;;;;;;;;;;;;;;;;;;5023530;28;5083;-59
2022/12/30 05:50:26;;;;;;;;;;;;;;;;;;5025882;28;5040;-59
2022/12/30 05:52:51;;;;;;;;;;;;;;;;;;5028531;28;3037;-58
2022/12/30 05:55:17;;;;;;;;;;;;;;;;;;5024663;28;5058;-58
2022/12/30 05:57:42;;;;;;;;;;;;;;;;;;5013240;28;4939;-58
2022/12/30 06:00:07;;;;;;;;;;;;;;;;;;5007906;28;5061;-58
2022/12/30 06:02:33;;;;;;;;;;;;;;;;;;5004706;28;5181;-59
2022/12/30 06:04:58;;;;;;;;;;;;;;;;;;5002078;28;5174;-59
2022/12/30 06:07:23;;;;;;;;;;;;;;;;;;5007300;28;3377;-59
2022/12/30 06:09:49;;;;;;;;;;;;;;;;;;5000701;28;4538;-58
2022/12/30 06:12:14;;;;;;;;;;;;;;;;;;5002707;28;5114;-58
2022/12/30 06:14:39;;;;;;;;;;;;;;;;;;5007531;28;4497;-58
2022/12/30 06:17:04;;;;;;;;;;;;;;;;;;5007452;28;5108;-58
2022/12/30 06:19:30;;;;;;;;;;;;;;;;;;5009028;28;4609;-58
2022/12/30 06:21:55;;;;;;;;;;;;;;;;;;5005443;28;5413;-58
2022/12/30 06:24:20;;;;;;;;;;;;;;;;;;5002947;28;4914;-58
2022/12/30 06:26:45;;;;;;;;;;;;;;;;;;5008834;28;5041;-59
2022/12/30 06:29:11;;;;;;;;;;;;;;;;;;5003719;28;4673;-59
2022/12/30 06:31:36;;;;;;;;;;;;;;;;;;5008207;28;2313;-59
2022/12/30 06:34:01;;;;;;;;;;;;;;;;;;5004634;28;4519;-59
2022/12/30 06:36:26;;;;;;;;;;;;;;;;;;5004711;28;4469;-59
2022/12/30 06:38:52;;;;;;;;;;;;;;;;;;5007237;28;4466;-59
2022/12/30 06:41:17;;;;;;;;;;;;;;;;;;5009486;28;5294;-59
2022/12/30 06:43:42;;;;;;;;;;;;;;;;;;5008665;28;1628;-58
2022/12/30 06:46:07;;;;;;;;;;;;;;;;;;4998320;28;5021;-58
2022/12/30 06:48:33;;;;;;;;;;;;;;;;;;4997818;28;5031;-58
2022/12/30 06:50:59;;;;;;;;;;;;;;;;;;4999456;28;5750;-59
2022/12/30 06:53:24;;;;;;;;;;;;;;;;;;4992881;28;4684;-59
2022/12/30 06:55:49;;;;;;;;;;;;;;;;;;5007232;28;3393;-59
2022/12/30 06:58:15;;;;;;;;;;;;;;;;;;5003301;28;5362;-58
2022/12/30 07:00:40;;;;;;;;;;;;;;;;;;5003159;28;5158;-59
2022/12/30 07:03:05;;;;;;;;;;;;;;;;;;5004629;28;5118;-58
2022/12/30 07:05:30;;;;;;;;;;;;;;;;;;5003718;28;5002;-58
2022/12/30 07:07:56;;;;;;;;;;;;;;;;;;5003895;28;5181;-58
2022/12/30 07:10:21;;;;;;;;;;;;;;;;;;4999559;28;3444;-59
2022/12/30 07:12:46;;;;;;;;;;;;;;;;;;4998344;28;5542;-58
2022/12/30 07:15:11;;;;;;;;;;;;;;;;;;5002633;28;4622;-58
2022/12/30 07:17:37;;;;;;;;;;;;;;;;;;4998611;28;5213;-57
2022/12/30 07:20:02;;;;;;;;;;;;;;;;;;4999021;28;5171;-59
2022/12/30 07:22:27;;;;;;;;;;;;;;;;;;4998731;28;3640;-59
2022/12/30 07:24:52;;;;;;;;;;;;;;;;;;4998275;28;4713;-60
2022/12/30 07:27:18;;;;;;;;;;;;;;;;;;4998869;28;5419;-58
2022/12/30 07:29:43;;;;;;;;;;;;;;;;;;4996717;28;5053;-59
2022/12/30 07:32:08;;;;;;;;;;;;;;;;;;4996189;28;4766;-59
2022/12/30 07:34:37;;;;;;;;;;;;;;;;;;5001072;28;3630;-59
2022/12/30 07:37:02;;;;;;;;;;;;;;;;;;5001576;28;5125;-58
2022/12/30 07:39:29;;;;;;;;;;;;;;;;;;4991911;28;4610;-59
2022/12/30 07:41:54;;;;;;;;;;;;;;;;;;4996643;28;4868;-62
2022/12/30 07:44:19;;;;;;;;;;;;;;;;;;5004716;28;5087;-61
2022/12/30 07:46:45;;;;;;;;;;;;;;;;;;5004640;28;3379;-62
2022/12/30 07:49:10;;;;;;;;;;;;;;;;;;4996622;28;5064;-60
2022/12/30 07:51:35;;;;;;;;;;;;;;;;;;5008712;28;5114;-64
2022/12/30 07:54:00;;;;;;;;;;;;;;;;;;5005709;28;4636;-60
2022/12/30 07:56:26;;;;;;;;;;;;;;;;;;5007558;28;4671;-60
2022/12/30 07:58:54;;;;;;;;;;;;;;;;;;5004592;28;3597;-60
2022/12/30 08:01:20;;;;;;;;;;;;;;;;;;5006996;28;4964;-62
2022/12/30 08:03:45;;;;;;;;;;;;;;;;;;5004651;28;5061;-58
2022/12/30 08:06:11;;;;;;;;;;;;;;;;;;5011604;28;4642;-58
2022/12/30 08:08:36;;;;;;;;;;;;;;;;;;5009567;28;5067;-57
2022/12/30 08:11:02;;;;;;;;;;;;;;;;;;5006439;28;4900;-57
2022/12/30 08:13:29;;;;;;;;;;;;;;;;;;5002064;28;3542;-57
2022/12/30 08:15:54;;;;;;;;;;;;;;;;;;5005053;28;5083;-58
2022/12/30 08:18:20;;;;;;;;;;;;;;;;;;5011706;28;5051;-60
2022/12/30 08:20:45;;;;;;;;;;;;;;;;;;5009392;28;5116;-58
2022/12/30 08:23:10;;;;;;;;;;;;;;;;;;5006114;28;4560;-59
2022/12/30 08:25:35;;;;;;;;;;;;;;;;;;5010550;28;3246;-58
2022/12/30 08:30:50;;;;;;;;;;;;;;;;;;4166079;26;5979;-61
2022/12/30 08:33:15;;;;;;;;;;;;;;;;;;4987087;28;4670;-57
2022/12/30 08:35:40;;;;;;;;;;;;;;;;;;4985627;28;4571;-56
2022/12/30 08:38:05;;;;;;;;;;;;;;;;;;4998357;28;5050;-58
2022/12/30 08:40:31;;;;;;;;;;;;;;;;;;4985467;28;3364;-59
2022/12/30 08:42:56;;;;;;;;;;;;;;;;;;4983135;28;4584;-59
2022/12/30 08:45:22;;;;;;;;;;;;;;;;;;4983102;28;5189;-56
2022/12/30 08:47:47;;;;;;;;;;;;;;;;;;4982029;28;5046;-59
2022/12/30 08:50:13;;;;;;;;;;;;;;;;;;4980204;28;4697;-59
2022/12/30 08:52:38;;;;;;;;;;;;;;;;;;4988675;28;3427;-58
2022/12/30 08:55:03;;;;;;;;;;;;;;;;;;5001011;28;5077;-57
2022/12/30 08:57:29;;;;;;;;;;;;;;;;;;5004211;28;4506;-57
2022/12/30 08:59:54;;;;;;;;;;;;;;;;;;5001378;28;5175;-59
2022/12/30 09:02:19;;;;;;;;;;;;;;;;;;5000188;28;5278;-58
2022/12/30 09:04:45;;;;;;;;;;;;;;;;;;5001461;28;3395;-58
2022/12/30 09:07:10;;;;;;;;;;;;;;;;;;5009295;28;4451;-58
2022/12/30 09:09:36;;;;;;;;;;;;;;;;;;5006388;28;5158;-59
2022/12/30 09:12:01;;;;;;;;;;;;;;;;;;5006805;28;5081;-59
2022/12/30 09:14:27;;;;;;;;;;;;;;;;;;5004439;28;4691;-59
2022/12/30 09:16:52;;;;;;;;;;;;;;;;;;5006029;28;5197;-56
2022/12/30 09:19:17;;;;;;;;;;;;;;;;;;5001697;28;4707;-58
2022/12/30 09:21:43;;;;;;;;;;;;;;;;;;4986274;28;5270;-59
2022/12/30 09:24:09;;;;;;;;;;;;;;;;;;4987570;28;5225;-59
2022/12/30 09:26:34;;;;;;;;;;;;;;;;;;4987532;28;5134;-60
2022/12/30 09:28:59;;;;;;;;;;;;;;;;;;4982416;28;4615;-60
2022/12/30 09:31:25;;;;;;;;;;;;;;;;;;5003340;28;3414;-59
2022/12/30 09:33:50;;;;;;;;;;;;;;;;;;4991012;28;5201;-60
2022/12/30 09:36:15;;;;;;;;;;;;;;;;;;4983333;28;4983;-60
2022/12/30 09:38:41;;;;;;;;;;;;;;;;;;4985346;28;5142;-62
2022/12/30 09:44:14;;;;;;;;;;;;;;;;;;4998415;28;4548;-61
2022/12/30 09:46:48;;;;;;;;;;;;;;;;;;4990746;28;1095;-61
2022/12/30 09:49:23;;;;;;;;;;;;;;;;;;4969272;28;5033;-59
2022/12/30 09:51:51;;;;;;;;;;;;;;;;;;4988518;28;5105;-57
2022/12/30 09:54:16;;;;;;;;;;;;;;;;;;4985240;28;5056;-60
2022/12/30 09:56:42;;;;;;;;;;;;;;;;;;4981051;28;5146;-60
2022/12/30 09:59:28;;;;;;;;;;;;;;;;;;4983727;28;5152;-59
2022/12/30 10:01:55;;;;;;;;;;;;;;;;;;4979389;28;4560;-58
2022/12/30 10:04:20;;;;;;;;;;;;;;;;;;4978943;28;3791;-57
2022/12/30 10:07:02;;;;;;;;;;;;;;;;;;4980654;28;4475;-61
2022/12/30 10:09:40;;;;;;;;;;;;;;;;;;4982571;28;4534;-60
2022/12/30 10:12:12;;;;;;;;;;;;;;;;;;4979293;28;4705;-60
2022/12/30 10:14:59;;;;;;;;;;;;;;;;;;4982783;28;4509;-59
2022/12/30 10:17:43;;;;;;;;;;;;;;;;;;4983281;28;4989;-60
2022/12/30 10:20:28;;;;;;;;;;;;;;;;;;4983159;28;5042;-60
2022/12/30 10:22:53;;;;;;;;;;;;;;;;;;4983338;28;4547;-59
2022/12/30 10:25:25;;;;;;;;;;;;;;;;;;4985782;28;3420;-60
2022/12/30 10:27:51;;;;;;;;;;;;;;;;;;4980291;28;5169;-60
2022/12/30 10:30:21;;;;;;;;;;;;;;;;;;4980250;28;5223;-60
2022/12/30 10:32:48;;;;;;;;;;;;;;;;;;4985321;28;4689;-60
2022/12/30 10:35:15;;;;;;;;;;;;;;;;;;4983240;28;5230;-60
2022/12/30 10:37:40;;;;;;;;;;;;;;;;;;4979007;28;3812;-61
2022/12/30 10:40:09;;;;;;;;;;;;;;;;;;4977948;28;4730;-59
2022/12/30 10:43:10;;;;;;;;;;;;;;;;;;4965628;28;5071;-61
2022/12/30 10:45:54;;;;;;;;;;;;;;;;;;4939456;28;5053;-59
2022/12/30 10:48:38;;;;;;;;;;;;;;;;;;4998398;28;5194;-58
2022/12/30 10:51:03;;;;;;;;;;;;;;;;;;5003152;28;5256;-58
2022/12/30 10:53:29;;;;;;;;;;;;;;;;;;5005749;28;5123;-58
2022/12/30 10:56:01;;;;;;;;;;;;;;;;;;4995060;28;4715;-61
2022/12/30 10:58:27;;;;;;;;;;;;;;;;;;5004697;28;3399;-59
2022/12/30 11:00:53;;;;;;;;;;;;;;;;;;5004069;28;4465;-58
2022/12/30 11:03:26;;;;;;;;;;;;;;;;;;5004373;28;4952;-62
2022/12/30 11:05:51;;;;;;;;;;;;;;;;;;5001393;28;4673;-61
2022/12/30 11:08:21;;;;;;;;;;;;;;;;;;5002692;28;4900;-61
2022/12/30 11:11:02;;;;;;;;;;;;;;;;;;5003090;28;3801;-62
2022/12/30 11:16:11;;;;;;;;;;;;;;;;;;5001750;28;5062;-61
2022/12/30 11:18:36;;;;;;;;;;;;;;;;;;4992905;28;4526;-62
2022/12/30 11:21:01;;;;;;;;;;;;;;;;;;5002779;28;5085;-62
2022/12/30 11:23:29;;;;;;;;;;;;;;;;;;5004852;28;4951;-63
2022/12/30 11:25:54;;;;;;;;;;;;;;;;;;5004851;28;5068;-61
2022/12/30 11:28:38;;;;;;;;;;;;;;;;;;4998336;28;3455;-61
2022/12/30 11:31:03;;;;;;;;;;;;;;;;;;5002286;28;4745;-60
2022/12/30 11:33:58;;;;;;;;;;;;;;;;;;5004565;28;5106;-60
2022/12/30 11:36:26;;;;;;;;;;;;;;;;;;4988340;28;5177;-61
2022/12/30 11:38:51;;;;;;;;;;;;;;;;;;5003679;28;5017;-60
2022/12/30 11:41:16;;;;;;;;;;;;;;;;;;5008940;28;5036;-60
2022/12/30 11:43:48;;;;;;;;;;;;;;;;;;5002320;28;1097;-60
2022/12/30 11:46:20;;;;;;;;;;;;;;;;;;4998316;28;4913;-60
2022/12/30 11:48:52;;;;;;;;;;;;;;;;;;4999122;28;5279;-60
2022/12/30 11:51:21;;;;;;;;;;;;;;;;;;5009402;28;5558;-58
2022/12/30 11:53:47;;;;;;;;;;;;;;;;;;5008245;28;5268;-58
2022/12/30 11:56:12;;;;;;;;;;;;;;;;;;5005352;28;5321;-58
2022/12/30 11:58:38;;;;;;;;;;;;;;;;;;5005964;28;3426;-59
2022/12/30 12:01:07;;;;;;;;;;;;;;;;;;5008845;28;5040;-59
2022/12/30 12:03:32;;;;;;;;;;;;;;;;;;5004205;28;4921;-59
2022/12/30 12:06:07;;;;;;;;;;;;;;;;;;5007442;28;5023;-60
2022/12/30 12:08:34;;;;;;;;;;;;;;;;;;5004463;28;5077;-61
2022/12/30 12:11:25;;;;;;;;;;;;;;;;;;5006218;28;5122;-61
2022/12/30 12:13:50;;;;;;;;;;;;;;;;;;5003343;28;2261;-61
2022/12/30 12:16:17;;;;;;;;;;;;;;;;;;5010571;28;5100;-61
2022/12/30 12:18:43;;;;;;;;;;;;;;;;;;4995639;28;5195;-63
2022/12/30 12:21:27;;;;;;;;;;;;;;;;;;5002547;28;5101;-60
2022/12/30 12:23:55;;;;;;;;;;;;;;;;;;5008931;28;5268;-61
2022/12/30 12:26:23;;;;;;;;;;;;;;;;;;5006272;28;4988;-61
2022/12/30 12:28:49;;;;;;;;;;;;;;;;;;5005505;28;1280;-59
2022/12/30 12:31:26;;;;;;;;;;;;;;;;;;5007307;28;5090;-61
2022/12/30 12:34:11;;;;;;;;;;;;;;;;;;5007798;28;5067;-60
2022/12/30 12:36:51;;;;;;;;;;;;;;;;;;5003756;28;5113;-60
2022/12/30 12:39:40;;;;;;;;;;;;;;;;;;5007932;28;4704;-61
2022/12/30 12:42:08;;;;;;;;;;;;;;;;;;5003788;28;5350;-60
2022/12/30 12:44:33;;;;;;;;;;;;;;;;;;5005150;28;5225;-60
2022/12/30 12:47:19;;;;;;;;;;;;;;;;;;5006386;28;4910;-62
2022/12/30 12:49:48;;;;;;;;;;;;;;;;;;5000488;28;3291;-60
2022/12/30 12:52:32;;;;;;;;;;;;;;;;;;4996987;28;5120;-60
2022/12/30 12:55:06;;;;;;;;;;;;;;;;;;4988040;28;4847;-60
2022/12/30 12:57:44;;;;;;;;;;;;;;;;;;4987270;28;5081;-62
2022/12/30 13:00:10;;;;;;;;;;;;;;;;;;4989983;28;4467;-59
2022/12/30 13:02:56;;;;;;;;;;;;;;;;;;5005770;28;5170;-58
2022/12/30 13:05:21;;;;;;;;;;;;;;;;;;4988092;28;5128;-59
2022/12/30 13:07:58;;;;;;;;;;;;;;;;;;4987785;28;1342;-59
2022/12/30 13:10:42;;;;;;;;;;;;;;;;;;5010235;28;5038;-58
2022/12/30 13:13:07;;;;;;;;;;;;;;;;;;5008086;28;5315;-60
2022/12/30 13:15:53;;;;;;;;;;;;;;;;;;5008537;28;4467;-61
2022/12/30 13:18:20;;;;;;;;;;;;;;;;;;5009510;28;5233;-58
2022/12/30 13:20:50;;;;;;;;;;;;;;;;;;4999187;28;5173;-59
2022/12/30 13:23:17;;;;;;;;;;;;;;;;;;4986356;28;4454;-62
2022/12/30 13:25:44;;;;;;;;;;;;;;;;;;5007556;28;3250;-62
2022/12/30 13:28:21;;;;;;;;;;;;;;;;;;5007412;28;4429;-61
2022/12/30 13:31:05;;;;;;;;;;;;;;;;;;5008783;28;4886;-60
2022/12/30 13:33:39;;;;;;;;;;;;;;;;;;5013852;28;4833;-60
2022/12/30 13:36:04;;;;;;;;;;;;;;;;;;4998845;28;4477;-60
2022/12/30 13:38:50;;;;;;;;;;;;;;;;;;5008110;28;4952;-61
2022/12/30 13:41:18;;;;;;;;;;;;;;;;;;5001412;28;4976;-60
2022/12/30 13:43:44;;;;;;;;;;;;;;;;;;5024459;28;1207;-61
2022/12/30 13:46:20;;;;;;;;;;;;;;;;;;5008335;28;4826;-63
2022/12/30 13:48:50;;;;;;;;;;;;;;;;;;5007075;28;5051;-63
2022/12/30 13:51:17;;;;;;;;;;;;;;;;;;5001057;28;4465;-63
2022/12/30 13:53:43;;;;;;;;;;;;;;;;;;5001516;28;5063;-62
2022/12/30 13:56:09;;;;;;;;;;;;;;;;;;4998248;28;4902;-63
2022/12/30 13:58:44;;;;;;;;;;;;;;;;;;5008315;28;1380;-66
2022/12/30 14:01:18;;;;;;;;;;;;;;;;;;5003629;28;5030;-66
2022/12/30 14:03:44;;;;;;;;;;;;;;;;;;5010604;28;5019;-63
2022/12/30 14:06:25;;;;;;;;;;;;;;;;;;5004938;28;5112;-65
2022/12/30 14:08:52;;;;;;;;;;;;;;;;;;5005277;28;5073;-66
2022/12/30 14:11:17;;;;;;;;;;;;;;;;;;5020645;28;5029;-66
2022/12/30 14:13:44;;;;;;;;;;;;;;;;;;5004011;28;1405;-65
2022/12/30 14:16:27;;;;;;;;;;;;;;;;;;5002926;28;4519;-65
2022/12/30 14:18:53;;;;;;;;;;;;;;;;;;5004682;28;5090;-65
2022/12/30 14:21:19;;;;;;;;;;;;;;;;;;5003645;28;4788;-63
2022/12/30 14:23:51;;;;;;;;;;;;;;;;;;5006673;28;5287;-63
2022/12/30 14:26:22;;;;;;;;;;;;;;;;;;5007808;28;5028;-60
2022/12/30 14:29:17;;;;;;;;;;;;;;;;;;5008762;28;1215;-63
2022/12/30 14:31:47;;;;;;;;;;;;;;;;;;4994871;28;5342;-63
2022/12/30 14:34:28;;;;;;;;;;;;;;;;;;5002414;28;4822;-60
2022/12/30 14:37:01;;;;;;;;;;;;;;;;;;5001703;28;5129;-61
2022/12/30 14:39:26;;;;;;;;;;;;;;;;;;5002483;28;4950;-63
2022/12/30 14:41:52;;;;;;;;;;;;;;;;;;5001716;28;5110;-61
2022/12/30 14:44:18;;;;;;;;;;;;;;;;;;5016396;28;4705;-61
2022/12/30 14:46:43;;;;;;;;;;;;;;;;;;5023053;28;1053;-62
2022/12/30 14:49:23;;;;;;;;;;;;;;;;;;5001177;28;5130;-61
2022/12/30 14:51:58;;;;;;;;;;;;;;;;;;4989518;28;5252;-63
2022/12/30 14:54:42;;;;;;;;;;;;;;;;;;4987409;28;4654;-63
2022/12/30 14:57:16;;;;;;;;;;;;;;;;;;5008521;28;4895;-63
2022/12/30 14:59:50;;;;;;;;;;;;;;;;;;4998680;28;4884;-64
2022/12/30 15:02:15;;;;;;;;;;;;;;;;;;5005326;28;4910;-65
2022/12/30 15:04:41;;;;;;;;;;;;;;;;;;5006594;28;3181;-62
2022/12/30 15:07:06;;;;;;;;;;;;;;;;;;5002331;28;4909;-63
2022/12/30 15:09:31;;;;;;;;;;;;;;;;;;5003568;28;4830;-65
2022/12/30 15:11:58;;;;;;;;;;;;;;;;;;5000076;28;5176;-64
2022/12/30 15:14:24;;;;;;;;;;;;;;;;;;5009897;28;5093;-64
2022/12/30 15:17:24;;;;;;;;;;;;;;;;;;5014909;28;1910;-63
2022/12/30 15:19:50;;;;;;;;;;;;;;;;;;4926590;29;5615;-62
2022/12/30 15:22:19;;;;;;;;;;;;;;;;;;4989334;28;1522;-64
2022/12/30 15:24:44;;;;;;;;;;;;;;;;;;5006377;28;5084;-60
2022/12/30 15:27:14;;;;;;;;;;;;;;;;;;5000089;28;5067;-64
2022/12/30 15:29:39;;;;;;;;;;;;;;;;;;5007380;28;5257;-63
2022/12/30 15:32:05;;;;;;;;;;;;;;;;;;5005809;28;5075;-64
2022/12/30 15:34:39;;;;;;;;;;;;;;;;;;5001472;28;3650;-63
2022/12/30 15:37:06;;;;;;;;;;;;;;;;;;5008095;28;5231;-63
2022/12/30 15:39:38;;;;;;;;;;;;;;;;;;5007786;28;5061;-63
2022/12/30 15:42:03;;;;;;;;;;;;;;;;;;5000537;28;5167;-65
2022/12/30 15:44:28;;;;;;;;;;;;;;;;;;4995114;28;5153;-63
2022/12/30 15:46:54;;;;;;;;;;;;;;;;;;5007865;28;4828;-64
2022/12/30 15:49:22;;;;;;;;;;;;;;;;;;5003862;28;3413;-66
2022/12/30 15:51:50;;;;;;;;;;;;;;;;;;5003642;28;5343;-64
2022/12/30 15:54:20;;;;;;;;;;;;;;;;;;5005236;28;5098;-65
2022/12/30 15:56:45;;;;;;;;;;;;;;;;;;5006730;28;4501;-65
2022/12/30 15:59:14;;;;;;;;;;;;;;;;;;5008809;28;5363;-64
2022/12/30 16:01:40;;;;;;;;;;;;;;;;;;5005683;28;3346;-67
2022/12/30 16:04:05;;;;;;;;;;;;;;;;;;5000604;28;4976;-67
2022/12/30 16:06:30;;;;;;;;;;;;;;;;;;5010385;28;4738;-65
2022/12/30 16:08:56;;;;;;;;;;;;;;;;;;4992203;28;5377;-59
2022/12/30 16:11:34;;;;;;;;;;;;;;;;;;4994857;28;5255;-58
2022/12/30 16:14:18;;;;;;;;;;;;;;;;;;4984583;28;4706;-59
2022/12/30 16:16:43;;;;;;;;;;;;;;;;;;5003338;28;3826;-59
2022/12/30 16:19:09;;;;;;;;;;;;;;;;;;4985319;28;5011;-62
2022/12/30 16:21:35;;;;;;;;;;;;;;;;;;4985966;28;4993;-67
2022/12/30 16:24:11;;;;;;;;;;;;;;;;;;4985670;28;5140;-61
2022/12/30 16:26:36;;;;;;;;;;;;;;;;;;4989209;28;5127;-63
2022/12/30 16:29:09;;;;;;;;;;;;;;;;;;4987419;28;5254;-55
2022/12/30 16:31:34;;;;;;;;;;;;;;;;;;4985213;28;3654;-63
2022/12/30 16:33:59;;;;;;;;;;;;;;;;;;4991659;28;5015;-59
2022/12/30 16:36:25;;;;;;;;;;;;;;;;;;4993836;28;4864;-59
2022/12/30 16:38:51;;;;;;;;;;;;;;;;;;4985106;28;5142;-58
2022/12/30 16:41:21;;;;;;;;;;;;;;;;;;4981642;28;5205;-58
2022/12/30 16:43:50;;;;;;;;;;;;;;;;;;4980261;28;3789;-62
2022/12/30 16:46:16;;;;;;;;;;;;;;;;;;4983720;28;5399;-65
2022/12/30 16:48:42;;;;;;;;;;;;;;;;;;4987372;28;5072;-63
2022/12/30 16:51:26;;;;;;;;;;;;;;;;;;4981843;28;5188;-63
2022/12/30 16:53:51;;;;;;;;;;;;;;;;;;4992130;28;4631;-64
2022/12/30 16:56:16;;;;;;;;;;;;;;;;;;5008440;28;5029;-64
2022/12/30 16:58:42;;;;;;;;;;;;;;;;;;5004210;28;3436;-61
2022/12/30 17:01:07;;;;;;;;;;;;;;;;;;5005954;28;4419;-58
2022/12/30 17:03:32;;;;;;;;;;;;;;;;;;5001238;28;5320;-70
2022/12/30 17:05:57;;;;;;;;;;;;;;;;;;5003658;28;5052;-66
2022/12/30 17:08:23;;;;;;;;;;;;;;;;;;4997258;28;5492;-61
2022/12/30 17:10:55;;;;;;;;;;;;;;;;;;5001806;28;3675;-61
2022/12/30 17:13:31;;;;;;;;;;;;;;;;;;4980259;28;5114;-61
2022/12/30 17:15:56;;;;;;;;;;;;;;;;;;4979983;28;4685;-60
2022/12/30 17:18:22;;;;;;;;;;;;;;;;;;4980165;28;5173;-62
2022/12/30 17:20:49;;;;;;;;;;;;;;;;;;4986012;28;5019;-61
2022/12/30 17:23:16;;;;;;;;;;;;;;;;;;4988418;28;5099;-62
2022/12/30 17:25:41;;;;;;;;;;;;;;;;;;4984943;28;3618;-64
2022/12/30 17:28:07;;;;;;;;;;;;;;;;;;4989728;28;4461;-63
2022/12/30 17:30:33;;;;;;;;;;;;;;;;;;4988148;28;5053;-63
2022/12/30 17:32:58;;;;;;;;;;;;;;;;;;4981097;28;4513;-61
2022/12/30 17:35:24;;;;;;;;;;;;;;;;;;4979721;28;5140;-61
2022/12/30 17:37:49;;;;;;;;;;;;;;;;;;4987645;28;3776;-62
2022/12/30 17:40:15;;;;;;;;;;;;;;;;;;4987651;28;4550;-61
2022/12/30 17:42:41;;;;;;;;;;;;;;;;;;4982496;28;4659;-64
2022/12/30 17:45:06;;;;;;;;;;;;;;;;;;4989195;28;4559;-60
2022/12/30 17:47:32;;;;;;;;;;;;;;;;;;4981733;28;4514;-66
2022/12/30 17:49:57;;;;;;;;;;;;;;;;;;4982014;28;4951;-66
2022/12/30 17:52:22;;;;;;;;;;;;;;;;;;4990213;28;3840;-59
2022/12/30 17:54:50;;;;;;;;;;;;;;;;;;5000469;28;5029;-59
2022/12/30 17:57:15;;;;;;;;;;;;;;;;;;4996186;28;5083;-61
2022/12/30 17:59:40;;;;;;;;;;;;;;;;;;5008701;28;4532;-65
2022/12/30 18:02:07;;;;;;;;;;;;;;;;;;5002741;28;5149;-65
2022/12/30 18:04:32;;;;;;;;;;;;;;;;;;5005699;28;3782;-64
2022/12/30 18:06:58;;;;;;;;;;;;;;;;;;4979825;28;5007;-64